Flight Track Log - Related Links

Times and Time Zones

All times are in EDT time to prevent confusion due to time zone crossing. See the UAL6129 flight status page for this flight to view local times or setup timezone preferences in your user account.

Time Position Orientation Groundspeed Altitude Reporting Facility
EDT Latitude Longitude Course Direction KTS MPH feet Rate Location/Type
Sun 10:14:55 PM 42.0000 -87.9333 352° North 152 175 2,300  Level Chicago TRACON
Sun 10:15:55 PM 42.0500 -87.9167 14° North 196 226 4,100 1,900 Climbing Chicago TRACON
Sun 10:16:55 PM 42.1000 -87.8833 26° Northeast 245 282 6,100 2,135 Climbing Chicago TRACON
Sun 10:17:39 PM 42.1394 -87.8525 30° Northeast 253 291 7,800 2,286 Climbing Chicago Center
Sun 10:18:00 PM 42.3220 -88.0097 350° North  Level FlightAware Approximate
Sun 10:18:40 PM 42.2081 -87.8408 North 271 312 10,100  Level Chicago Center
Sun 10:19:00 PM 42.4092 -88.0462 340° North  Level FlightAware Approximate
Sun 10:19:41 PM 42.2814 -87.8719 343° North 280 322 12,500  Level Chicago Center
Sun 10:20:00 PM 42.4993 -88.0665 352° North  Level FlightAware Approximate
Sun 10:20:42 PM 42.3708 -87.9333 333° Northwest 306 352 13,800  Level Chicago Center
Sun 10:21:43 PM 42.4578 -87.9931 333° Northwest 345 397 14,900 1,024 Climbing Chicago Center
Sun 10:22:45 PM 42.5478 -88.0569 332° Northwest 362 417 15,900 1,024 Climbing Chicago Center
Sun 10:23:46 PM 42.6422 -88.1228 333° Northwest 378 435 17,000 984 Climbing Chicago Center
Sun 10:24:47 PM 42.7367 -88.1950 331° Northwest 386 444 17,900 934 Climbing Chicago Center
Sun 10:25:48 PM 42.8336 -88.2672 331° Northwest 395 455 18,900 984 Climbing Chicago Center
Sun 10:26:49 PM 42.9314 -88.3417 331° Northwest 401 461 19,900 541 Climbing Chicago Center
Sun 10:27:50 PM 43.0328 -88.4175 331° Northwest 411 473 20,000 49 Climbing Chicago Center
Sun 10:28:52 PM 43.1378 -88.4969 331° Northwest 427 491 20,000  Level Chicago Center
Sun 10:29:53 PM 43.2411 -88.5764 331° Northwest 423 487 20,000  Level Chicago Center
Sun 10:30:54 PM 43.3456 -88.6561 331° Northwest 423 487 20,000  Level Chicago Center
Sun 10:31:55 PM 43.4500 -88.7367 331° Northwest 422 486 20,000  Level Chicago Center
Sun 10:32:56 PM 43.5533 -88.8172 331° Northwest 422 486 20,000  Level Chicago Center
Sun 10:33:58 PM 43.6725 -88.9100 331° Northwest 420 483 20,000 -293 Level Chicago Center
Sun 10:34:59 PM 43.7750 -88.9894 331° Northwest 422 486 19,400 -738 Descending Chicago Center
Sun 10:36:00 PM 43.8761 -89.0681 331° Northwest 416 479 18,500 -1,458 Descending Chicago Center
Sun 10:36:46 PM 43.9503 -89.1269 330° Northwest 405 466 16,800 -2,167 Descending Minneapolis Center
Sun 10:37:48 PM 44.0481 -89.2044 330° Northwest 389 448 14,600 -1,415 Descending Minneapolis Center
Sun 10:38:49 PM 44.1372 -89.2736 331° Northwest 382 440 13,900 -295 Descending Minneapolis Center
Sun 10:39:50 PM 44.2339 -89.3522 330° Northwest 384 442 14,000 -1,171 Climbing Minneapolis Center
Sun 10:40:52 PM 44.3256 -89.4250 330° Northwest 362 417 11,500 -1,756 Descending Minneapolis Center
Sun 10:41:53 PM 44.4078 -89.4900 331° Northwest 322 371 10,400 -1,475 Descending Minneapolis Center
Sun 10:42:54 PM 44.4739 -89.5347 334° Northwest 277 319 8,500 -1,869 Descending Minneapolis Center
Sun 10:43:55 PM 44.5403 -89.5831 333° Northwest 253 291 6,600 -1,869 Descending Minneapolis Center

Login

Don't have an account? Register now (free) for customized features, flight alerts, and more!